首页
METAR-TAF:

METAR-TAF

机场 :

巴耶利峇空軍基地

新加坡, 新加坡

纬度: 01-22N, 经度: 103-55E, 海拔: 18米

当前天气观测

该预报发布于49分钟前的22:00 UTC
风速1节,风向东南
温度 28°C
湿度 89%
气压 1008 hPa
能见度10公里或以上
少量云层高于1500英尺
多云层高于15000英尺

METAR: WSAP 282200Z 13001KT 9999 FEW015 BKN150 28/26 Q1008

时间: 06:49 (22:49 UTC)

预报

该预报发布于5小时和49分钟前的17:00 UTC
预报有效从28日的 18点(UTC)到 30日的 00点(UTC)
风速9节,风向南转南东
能见度10公里或以上
少量云层高于1500英尺
散云层高于2000英尺
短暂存在
从 29日的 06点(UTC)到 29日的 09点(UTC)
能見度: 3000
少量云层高于1200英尺, 积雨云.
多云层高于1500英尺
雷暴, 雨,

TAF: WSAP 281700Z 2818/3000 16009KT 9999 FEW015 SCT020 TEMPO 2906/2909 3000 TSRA FEW012CB BKN015

超过4000个机场的气象观测和天气预报(METAR&TAF报告)。

可查询的气象台以黄色和红色小点在地图上表示。

将鼠标移到小点上方,可查看气象台名称。

然后点击查看天气观测和预报。

如需切换地图:点击带黑十字的绿色按钮放大地图;点击带横线的绿色按钮缩小地图;或者点击绿色箭头查看邻近地区的地图。


METAR-TAF: